Skip to main content.
Our real time weather data display below is updated continuously via our 24/7 live data feed.
 TIME   TEMPERATURE   WINDSPEED   DIRECTION   HUMIDITY   BAROMETER   RAINFALL 
14:15 19.0°C (66.2°F) 16.7 kmh (10.4 mph) W 77% 1012.9hPa (29.91 inHg) 0.0mm (0.00 in.)
13:15 18.0°C (64.4 °F) 22.2 kmh (13.8 mph) W 82% 1012.9hPa (29.91 inHg) 0.0mm (0.00 in.)
12:15 19.0°C (66.2 °F) 22.2 kmh (13.8 mph) WSW 72% 1012.9hPa (29.91 inHg) 0.0mm (0.00 in.)
11:15 18.0°C (64.4 °F) 24.1 kmh (15.0 mph) WSW 77% 1012.9hPa (29.91 inHg) 0.0mm (0.00 in.)
10:15 17.0°C (62.6 °F) 24.1 kmh (15.0 mph) SW 82% 1012.9hPa (29.91 inHg) 0.0mm (0.00 in.)
9:09 16.0°C (60.8 °F) 16.7 kmh (10.4 mph) SW 87% 1012.9hPa (29.91 inHg) 0.0mm (0.00 in.)
8:09 15.0°C (59.0 °F) 13.0 kmh (8.1 mph) SSW 93% 1013.9hPa (29.94 inHg) 0.0mm (0.00 in.)
7:09 15.0°C (59.0 °F) 14.8 kmh (9.2 mph) SSW 87% 1012.9hPa (29.91 inHg) 0.0mm (0.00 in.)
6:09 15.0°C (59.0 °F) 14.8 kmh (9.2 mph) SSW 87% 1013.9hPa (29.94 inHg) 0.0mm (0.00 in.)
5:09 15.0°C (59.0 °F) 11.1 kmh (6.9 mph) SSW 87% 1013.9hPa (29.94 inHg) 0.0mm (0.00 in.)
4:09 14.0°C (57.2 °F) 11.1 kmh (6.9 mph) SSW 93% 1013.9hPa (29.94 inHg) 0.0mm (0.00 in.)
3:09 14.0°C (57.2 °F) 9.3 kmh (5.8 mph) SSW 93% 1014.9hPa (29.97 inHg) 0.0mm (0.00 in.)
2:09 14.0°C (57.2 °F) 11.1 kmh (6.9 mph) S 87% 1014.9hPa (29.97 inHg) 0.0mm (0.00 in.)
1:09 14.0°C (57.2 °F) 13.0 kmh (8.1 mph) SSW 87% 1015.9hPa (30.00 inHg) 0.0mm (0.00 in.)
0:09 13.0°C (55.4 °F) 11.1 kmh (6.9 mph) SSW 93% 1015.9hPa (30.00 inHg) 0.0mm (0.00 in.)
23:09 13.0°C (55.4 °F) 9.3 kmh (5.8 mph) SW 93% 1015.9hPa (30.00 inHg) 0.0mm (0.00 in.)
22:09 13.0°C (55.4 °F) 9.3 kmh (5.8 mph) SW 87% 1016.9hPa (30.03 inHg) 0.0mm (0.00 in.)
21:09 13.0°C (55.4 °F) 7.4 kmh (4.6 mph) WSW 87% 1015.9hPa (30.00 inHg) 0.0mm (0.00 in.)
20:09 14.0°C (57.2 °F) 9.3 kmh (5.8 mph) WSW 82% 1015.9hPa (30.00 inHg) 0.0mm (0.00 in.)
19:09 15.0°C (59.0 °F) 11.1 kmh (6.9 mph) W 76% 1015.9hPa (30.00 inHg) 0.0mm (0.00 in.)
18:09 17.0°C (62.6 °F) 16.7 kmh (10.4 mph) W 67% 1015.9hPa (30.00 inHg) 0.0mm (0.00 in.)
17:09 18.0°C (64.4 °F) 14.8 kmh (9.2 mph) WNW 63% 1015.9hPa (30.00 inHg) 0.0mm (0.00 in.)
16:09 18.0°C (64.4 °F) 16.7 kmh (10.4 mph) W 63% 1015.9hPa (30.00 inHg) 0.0mm (0.00 in.)
15:09 18.0°C (64.4 °F) 20.4 kmh (12.7 mph) WNW 63% 1015.9hPa (30.00 inHg) 0.0mm (0.00 in.)